createdAt,value
2023-01-13T00:01:52.969Z,9.28
2023-01-13T00:04:22.290Z,9.22
2023-01-13T00:06:50.650Z,9.22
2023-01-13T00:09:22.838Z,9.17
2023-01-13T00:11:49.187Z,9.10
2023-01-13T00:14:23.920Z,9.04
2023-01-13T00:16:50.474Z,9.00
2023-01-13T00:19:23.541Z,8.95
2023-01-13T00:21:49.934Z,8.95
2023-01-13T00:24:16.310Z,8.89
2023-01-13T00:26:42.757Z,8.83
2023-01-13T00:29:16.201Z,8.77
2023-01-13T00:31:47.796Z,8.76
2023-01-13T00:34:16.993Z,8.74
2023-01-13T00:36:43.400Z,8.80
2023-01-13T00:39:18.930Z,8.82
2023-01-13T00:42:14.412Z,8.84
2023-01-13T00:44:41.002Z,8.73
2023-01-13T00:47:07.457Z,8.66
2023-01-13T00:49:42.079Z,8.62
2023-01-13T00:52:08.429Z,8.63
2023-01-13T00:54:38.698Z,8.62
2023-01-13T00:57:07.898Z,8.70
2023-01-13T00:59:34.239Z,8.70
2023-01-13T01:02:04.346Z,8.68
2023-01-13T01:04:31.046Z,8.67
2023-01-13T01:06:57.378Z,8.70
2023-01-13T01:09:24.069Z,8.64
2023-01-13T01:11:50.395Z,8.65
2023-01-13T01:14:16.761Z,8.60
2023-01-13T01:16:43.100Z,8.60
2023-01-13T01:19:19.707Z,8.63
2023-01-13T01:21:48.116Z,8.68
2023-01-13T01:24:24.680Z,8.70
2023-01-13T01:29:35.545Z,8.73
2023-01-13T01:32:05.774Z,8.71
2023-01-13T01:34:32.233Z,8.66
2023-01-13T01:37:07.988Z,8.63
2023-01-13T01:39:34.523Z,8.69
2023-01-13T01:42:22.192Z,8.71
2023-01-13T01:45:01.166Z,8.72
2023-01-13T01:47:33.502Z,8.73
2023-01-13T01:50:03.140Z,8.76
2023-01-13T01:52:40.553Z,8.71
2023-01-13T01:55:24.164Z,8.71
2023-01-13T01:58:18.213Z,8.73
2023-01-13T02:00:44.643Z,8.73
2023-01-13T02:03:14.692Z,8.74
2023-01-13T02:05:44.058Z,8.69
2023-01-13T02:08:15.076Z,8.67
2023-01-13T02:10:50.443Z,8.57
2023-01-13T02:13:17.474Z,8.59
2023-01-13T02:16:16.845Z,8.51
2023-01-13T02:19:25.530Z,8.59
2023-01-13T02:22:34.950Z,8.55
2023-01-13T02:25:16.520Z,8.51
2023-01-13T02:28:26.030Z,8.56
2023-01-13T02:31:24.673Z,8.48
2023-01-13T02:36:59.791Z,8.55
2023-01-13T02:39:59.752Z,8.56
2023-01-13T02:43:08.053Z,8.62
2023-01-13T02:48:39.888Z,8.66
2023-01-13T02:51:14.526Z,8.67
2023-01-13T02:56:44.308Z,8.69
2023-01-13T02:59:12.344Z,8.73
2023-01-13T03:01:42.497Z,8.74
2023-01-13T03:04:54.400Z,8.68
2023-01-13T03:07:39.559Z,8.77
2023-01-13T03:10:30.809Z,8.79
2023-01-13T03:13:11.606Z,8.76
2023-01-13T03:15:59.670Z,8.68
2023-01-13T03:19:03.639Z,8.57
2023-01-13T03:21:56.709Z,8.55
2023-01-13T03:24:38.347Z,8.56
2023-01-13T03:27:07.487Z,8.57
2023-01-13T03:29:38.736Z,8.54
2023-01-13T03:32:31.453Z,8.54
2023-01-13T03:35:32.397Z,8.55
2023-01-13T03:38:24.320Z,8.56
2023-01-13T03:40:58.142Z,8.58
2023-01-13T03:43:53.139Z,8.56
2023-01-13T03:46:34.287Z,8.67
2023-01-13T03:49:03.864Z,8.72
2023-01-13T03:51:39.050Z,8.70
2023-01-13T03:54:13.530Z,8.70
2023-01-13T03:56:45.216Z,8.65
2023-01-13T03:59:45.091Z,8.63
2023-01-13T04:02:55.264Z,8.59
2023-01-13T04:05:27.199Z,8.61
2023-01-13T04:08:07.740Z,8.61
2023-01-13T04:11:07.417Z,8.60
2023-01-13T04:13:37.680Z,8.55
2023-01-13T04:16:11.174Z,8.54
2023-01-13T04:18:41.675Z,8.52
2023-01-13T04:21:15.587Z,8.45
2023-01-13T04:23:54.631Z,8.46
2023-01-13T04:26:23.682Z,8.49
2023-01-13T04:28:56.338Z,8.45
2023-01-13T04:31:22.815Z,8.42
2023-01-13T04:33:52.036Z,8.43
2023-01-13T04:36:25.369Z,8.44
2023-01-13T04:38:54.812Z,8.43
2023-01-13T04:41:24.523Z,8.43
2023-01-13T04:43:53.442Z,8.37
2023-01-13T04:46:25.781Z,8.37
2023-01-13T04:48:52.143Z,8.37
2023-01-13T04:51:26.994Z,8.33
2023-01-13T04:53:53.408Z,8.34
2023-01-13T04:56:24.619Z,8.35
2023-01-13T04:58:53.869Z,8.32
2023-01-13T05:01:28.090Z,8.35
2023-01-13T05:03:54.462Z,8.31
2023-01-13T05:06:20.855Z,8.32
2023-01-13T05:08:49.789Z,8.40
2023-01-13T05:11:46.401Z,8.37
2023-01-13T05:14:34.232Z,8.36
2023-01-13T05:17:00.696Z,8.31
2023-01-13T05:19:35.710Z,8.30
2023-01-13T05:22:24.005Z,8.29
2023-01-13T05:25:09.380Z,8.24
2023-01-13T05:27:38.761Z,8.22
2023-01-13T05:30:08.752Z,8.20
2023-01-13T05:32:42.652Z,8.26
2023-01-13T05:35:11.810Z,8.31
2023-01-13T05:37:40.375Z,8.35
2023-01-13T05:40:33.405Z,8.34
2023-01-13T05:43:27.988Z,8.30
2023-01-13T05:46:02.558Z,8.24
2023-01-13T05:48:41.743Z,8.26
2023-01-13T05:51:13.012Z,8.26
2023-01-13T05:53:40.821Z,8.20
2023-01-13T05:56:08.579Z,8.15
2023-01-13T05:58:45.421Z,8.15
2023-01-13T06:01:14.318Z,8.18
2023-01-13T06:03:43.645Z,8.13
2023-01-13T06:06:10.102Z,8.14
2023-01-13T06:08:42.771Z,8.17
2023-01-13T06:11:09.220Z,8.13
2023-01-13T06:13:35.647Z,8.17
2023-01-13T06:16:06.288Z,8.11
2023-01-13T06:18:32.689Z,8.14
2023-01-13T06:20:59.182Z,8.09
2023-01-13T06:23:29.604Z,8.08
2023-01-13T06:25:59.007Z,8.09
2023-01-13T06:31:12.093Z,8.21
2023-01-13T06:33:55.000Z,8.25
2023-01-13T06:36:31.640Z,8.24
2023-01-13T06:39:07.266Z,8.29
2023-01-13T06:41:58.146Z,8.28
2023-01-13T06:44:27.320Z,8.33
2023-01-13T06:46:53.710Z,8.38
2023-01-13T06:49:21.663Z,8.39
2023-01-13T06:51:51.336Z,8.40
2023-01-13T06:54:27.649Z,8.40
2023-01-13T06:56:56.159Z,8.43
2023-01-13T06:59:28.839Z,8.45
2023-01-13T07:01:55.281Z,8.42
2023-01-13T07:04:21.749Z,8.44
2023-01-13T07:06:51.269Z,8.42
2023-01-13T07:09:20.778Z,8.45
2023-01-13T07:11:48.506Z,8.48
2023-01-13T07:14:35.117Z,8.52
2023-01-13T07:17:04.302Z,8.52
2023-01-13T07:19:30.775Z,8.51
2023-01-13T07:22:00.272Z,8.52
2023-01-13T07:24:26.764Z,8.51
2023-01-13T07:26:53.170Z,8.51
2023-01-13T07:29:22.853Z,8.56
2023-01-13T07:31:52.115Z,8.60
2023-01-13T07:34:18.911Z,8.60
2023-01-13T07:36:47.994Z,8.62
2023-01-13T07:39:14.513Z,8.62
2023-01-13T07:41:59.306Z,8.61
2023-01-13T07:44:30.879Z,8.66
2023-01-13T07:47:00.068Z,8.68
2023-01-13T07:49:29.721Z,8.72
2023-01-13T07:51:56.107Z,8.73
2023-01-13T07:54:35.227Z,8.75
2023-01-13T07:57:06.811Z,8.73
2023-01-13T08:02:19.752Z,8.79
2023-01-13T08:04:47.350Z,8.80
2023-01-13T08:07:13.900Z,8.81
2023-01-13T08:12:39.401Z,8.84
2023-01-13T08:15:13.497Z,8.85
2023-01-13T08:17:41.971Z,8.88
2023-01-13T08:20:14.052Z,8.91
2023-01-13T08:22:40.425Z,8.92
2023-01-13T08:25:09.754Z,8.93
2023-01-13T08:27:38.967Z,8.96
2023-01-13T08:30:06.062Z,8.99
2023-01-13T08:32:34.902Z,8.98
2023-01-13T08:35:04.224Z,9.01
2023-01-13T08:37:30.901Z,9.11
2023-01-13T08:40:00.503Z,9.08
2023-01-13T08:42:27.730Z,9.03
2023-01-13T08:44:54.740Z,9.01
2023-01-13T08:47:24.255Z,9.03
2023-01-13T08:49:50.642Z,9.01
2023-01-13T08:52:17.218Z,8.98
2023-01-13T08:54:51.821Z,8.96
2023-01-13T08:57:24.818Z,8.97
2023-01-13T08:59:54.141Z,8.91
2023-01-13T09:02:23.057Z,8.86
2023-01-13T09:05:00.375Z,8.85
2023-01-13T09:07:37.994Z,8.80
2023-01-13T09:10:06.657Z,8.78
2023-01-13T09:13:02.024Z,8.84
2023-01-13T09:15:28.439Z,8.79
2023-01-13T09:17:59.547Z,8.79
2023-01-13T09:20:25.902Z,8.78
2023-01-13T09:22:52.307Z,8.76
2023-01-13T09:28:02.077Z,8.77
2023-01-13T09:30:32.006Z,8.72
2023-01-13T09:33:17.703Z,8.69
2023-01-13T09:35:47.686Z,8.67
2023-01-13T09:38:17.086Z,8.65
2023-01-13T09:40:47.117Z,8.65
2023-01-13T09:43:51.777Z,8.68
2023-01-13T09:46:43.760Z,8.68
2023-01-13T09:49:28.003Z,8.72
2023-01-13T09:52:03.833Z,8.73
2023-01-13T09:54:37.994Z,8.76
2023-01-13T09:57:12.294Z,8.83
2023-01-13T09:59:41.651Z,8.84
2023-01-13T10:02:10.735Z,8.85
2023-01-13T10:10:09.142Z,9.03
2023-01-13T10:12:55.993Z,9.04
2023-01-13T10:15:28.729Z,9.03
2023-01-13T10:18:39.884Z,9.03
2023-01-13T10:21:32.680Z,9.01
2023-01-13T10:24:20.560Z,9.00
2023-01-13T10:27:25.861Z,8.98
2023-01-13T10:32:35.597Z,9.06
2023-01-13T10:35:06.943Z,9.12
2023-01-13T10:37:35.474Z,9.13
2023-01-13T10:40:03.023Z,9.13
2023-01-13T10:42:29.450Z,9.11
2023-01-13T10:45:05.656Z,9.10
2023-01-13T10:47:34.924Z,9.08
2023-01-13T10:50:13.233Z,9.03
2023-01-13T10:52:54.686Z,9.00
2023-01-13T10:55:36.671Z,9.01
2023-01-13T10:58:20.513Z,9.01
2023-01-13T11:00:49.027Z,9.06
2023-01-13T11:03:24.128Z,9.12
2023-01-13T11:06:15.221Z,9.10
2023-01-13T11:08:47.589Z,9.14
2023-01-13T11:11:45.853Z,9.18
2023-01-13T11:14:38.375Z,9.23
2023-01-13T11:18:02.531Z,9.25
2023-01-13T11:20:43.051Z,9.32
2023-01-13T11:23:44.119Z,9.36
2023-01-13T11:26:26.475Z,9.36
2023-01-13T11:29:11.044Z,9.36
2023-01-13T11:31:48.097Z,9.45
2023-01-13T11:34:37.016Z,9.52
2023-01-13T11:40:22.144Z,9.59
2023-01-13T11:42:59.905Z,9.64
2023-01-13T11:45:59.508Z,9.67
2023-01-13T11:48:48.801Z,9.72
2023-01-13T11:52:03.941Z,9.78
2023-01-13T11:55:09.244Z,9.79
2023-01-13T11:58:02.785Z,9.86
2023-01-13T12:00:36.706Z,9.94
2023-01-13T12:03:31.004Z,9.87
2023-01-13T12:06:17.462Z,9.88
2023-01-13T12:08:56.303Z,9.90
2023-01-13T12:12:14.024Z,9.88
2023-01-13T12:15:10.443Z,9.91
2023-01-13T12:21:17.488Z,9.85
2023-01-13T12:23:54.408Z,9.87
2023-01-13T12:26:23.946Z,9.87
2023-01-13T12:28:58.215Z,9.87
2023-01-13T12:31:25.077Z,9.90
2023-01-13T12:34:26.659Z,9.90
2023-01-13T12:37:22.865Z,9.92
2023-01-13T12:40:13.941Z,9.94
2023-01-13T12:43:02.101Z,9.95
2023-01-13T12:45:33.406Z,9.98
2023-01-13T12:48:03.903Z,10.02
2023-01-13T12:50:37.281Z,10.07
2023-01-13T12:53:29.713Z,10.10
2023-01-13T12:56:20.812Z,10.14
2023-01-13T12:58:51.451Z,10.15
2023-01-13T13:01:35.598Z,10.20
2023-01-13T13:04:20.556Z,10.22
2023-01-13T13:07:17.427Z,10.24
2023-01-13T13:09:57.987Z,10.23
2023-01-13T13:12:48.795Z,10.21
2023-01-13T13:15:28.847Z,10.17
2023-01-13T13:18:18.236Z,10.18
2023-01-13T13:21:04.013Z,10.21
2023-01-13T13:23:50.320Z,10.23
2023-01-13T13:29:58.254Z,10.27
2023-01-13T13:33:02.151Z,10.32
2023-01-13T13:35:59.497Z,10.33
2023-01-13T13:39:13.883Z,10.40
2023-01-13T13:42:06.075Z,10.37
2023-01-13T13:45:07.380Z,10.36
2023-01-13T13:47:38.706Z,10.29
2023-01-13T13:50:29.933Z,10.33
2023-01-13T13:53:06.953Z,10.26
2023-01-13T13:55:33.578Z,10.25
2023-01-13T13:58:03.613Z,10.24
2023-01-13T14:00:38.649Z,10.23
2023-01-13T14:03:27.085Z,10.26
2023-01-13T14:05:56.762Z,10.18
2023-01-13T14:08:29.370Z,10.15
2023-01-13T14:10:58.597Z,10.11
2023-01-13T14:13:31.566Z,10.06
2023-01-13T14:16:09.365Z,10.03
2023-01-13T14:18:45.355Z,10.01
2023-01-13T14:21:32.844Z,9.97
2023-01-13T14:24:17.569Z,9.94
2023-01-13T14:26:43.924Z,9.94
2023-01-13T14:29:20.529Z,9.98
2023-01-13T14:31:47.810Z,9.96
2023-01-13T14:34:32.332Z,9.95
2023-01-13T14:37:09.144Z,9.95
2023-01-13T14:39:41.877Z,9.93
2023-01-13T14:42:16.969Z,9.89
2023-01-13T14:44:48.628Z,9.83
2023-01-13T14:47:39.444Z,9.84
2023-01-13T14:50:11.856Z,9.84
2023-01-13T14:53:00.700Z,9.79
2023-01-13T14:55:34.499Z,9.77
2023-01-13T14:58:22.891Z,9.79
2023-01-13T15:00:56.501Z,9.78
2023-01-13T15:03:22.881Z,9.80
2023-01-13T15:06:25.588Z,9.82
2023-01-13T15:08:52.818Z,9.80
2023-01-13T15:11:28.869Z,9.80
2023-01-13T15:14:03.468Z,9.75
2023-01-13T15:16:33.350Z,9.72
2023-01-13T15:19:06.009Z,9.68
2023-01-13T15:21:32.359Z,9.67
2023-01-13T15:24:00.031Z,9.69
2023-01-13T15:26:29.966Z,9.71
2023-01-13T15:28:58.443Z,9.71
2023-01-13T15:31:25.709Z,9.71
2023-01-13T15:33:57.410Z,9.69
2023-01-13T15:39:15.275Z,9.66
2023-01-13T15:42:03.326Z,9.62
2023-01-13T15:44:48.106Z,9.57
2023-01-13T15:47:16.926Z,9.52
2023-01-13T15:49:48.431Z,9.55
2023-01-13T15:52:28.335Z,9.56
2023-01-13T15:54:55.027Z,9.49
2023-01-13T15:57:34.148Z,9.44
2023-01-13T16:00:06.745Z,9.36
2023-01-13T16:02:35.873Z,9.40
2023-01-13T16:05:09.448Z,9.41
2023-01-13T16:07:39.086Z,9.35
2023-01-13T16:10:11.933Z,9.33
2023-01-13T16:12:41.445Z,9.28
2023-01-13T16:15:22.428Z,9.27
2023-01-13T16:17:56.327Z,9.32
2023-01-13T16:20:23.232Z,9.30
2023-01-13T16:22:50.113Z,9.29
2023-01-13T16:25:27.071Z,9.30
2023-01-13T16:28:01.125Z,9.35
2023-01-13T16:30:33.281Z,9.35
2023-01-13T16:32:59.719Z,9.30
2023-01-13T16:35:26.293Z,9.24
2023-01-13T16:37:53.939Z,9.22
2023-01-13T16:40:35.493Z,9.18
2023-01-13T16:43:07.828Z,9.13
2023-01-13T16:45:37.096Z,9.14
2023-01-13T16:48:11.814Z,9.12
2023-01-13T16:50:42.408Z,9.09
2023-01-13T16:53:14.608Z,9.03
2023-01-13T16:55:44.100Z,8.96
2023-01-13T16:58:26.136Z,8.83
2023-01-13T17:00:55.955Z,8.72
2023-01-13T17:03:25.277Z,8.57
2023-01-13T17:05:51.649Z,8.44
2023-01-13T17:08:20.994Z,8.33
2023-01-13T17:10:50.620Z,8.26
2023-01-13T17:13:17.860Z,8.13
2023-01-13T17:15:45.136Z,8.01
2023-01-13T17:18:14.549Z,7.95
2023-01-13T17:20:41.157Z,7.94
2023-01-13T17:23:10.037Z,7.93
2023-01-13T17:25:39.253Z,7.95
2023-01-13T17:28:05.751Z,8.01
2023-01-13T17:30:35.309Z,8.03
2023-01-13T17:33:01.779Z,8.03
2023-01-13T17:35:28.199Z,8.04
2023-01-13T17:37:59.016Z,8.06
2023-01-13T17:40:25.428Z,8.01
2023-01-13T17:42:51.959Z,7.90
2023-01-13T17:48:03.257Z,7.78
2023-01-13T17:50:33.977Z,7.73
2023-01-13T17:55:52.041Z,7.73
2023-01-13T18:45:34.263Z,7.64
2023-01-13T18:50:46.176Z,7.69
2023-01-13T18:53:18.601Z,7.77
2023-01-13T18:55:44.958Z,7.84
2023-01-13T18:58:14.326Z,7.88
2023-01-13T19:00:43.927Z,7.90
2023-01-13T19:03:11.721Z,7.97
2023-01-13T19:05:48.397Z,7.99
2023-01-13T19:08:16.195Z,7.97
2023-01-13T19:10:48.177Z,8.01
2023-01-13T19:13:18.635Z,8.08
2023-01-13T19:15:45.497Z,8.06
2023-01-13T19:18:14.370Z,8.01
2023-01-13T19:23:28.413Z,7.99
2023-01-13T19:26:06.678Z,7.97
2023-01-13T19:28:40.829Z,7.99
2023-01-13T19:31:17.770Z,8.02
2023-01-13T19:33:44.245Z,7.98
2023-01-13T19:36:15.731Z,7.98
2023-01-13T19:38:45.075Z,7.99
2023-01-13T19:41:31.640Z,7.99
2023-01-13T19:44:19.925Z,8.02
2023-01-13T19:46:48.283Z,8.03
2023-01-13T19:49:14.747Z,8.10
2023-01-13T19:51:44.943Z,8.14
2023-01-13T19:54:11.602Z,8.14
2023-01-13T19:56:37.952Z,8.20
2023-01-13T19:59:06.682Z,8.26
2023-01-13T20:01:40.108Z,8.29
2023-01-13T20:04:15.963Z,8.39
2023-01-13T20:06:44.116Z,8.32
2023-01-13T20:09:18.972Z,8.30
2023-01-13T20:11:46.940Z,8.29
2023-01-13T20:14:16.453Z,8.29
2023-01-13T20:16:45.673Z,8.33
2023-01-13T20:19:12.090Z,8.32
2023-01-13T20:21:48.097Z,8.24
2023-01-13T20:24:23.143Z,8.23
2023-01-13T20:26:49.548Z,8.24
2023-01-13T20:29:16.121Z,8.22
2023-01-13T20:31:46.201Z,8.17
2023-01-13T20:34:19.118Z,8.15
2023-01-13T20:36:50.474Z,8.12
2023-01-13T20:42:32.507Z,8.05
2023-01-13T20:45:01.787Z,8.16
2023-01-13T20:47:29.731Z,8.20
2023-01-13T20:50:01.534Z,8.21
2023-01-13T20:52:28.199Z,8.25
2023-01-13T20:54:57.555Z,8.26
2023-01-13T20:57:27.089Z,8.24
2023-01-13T20:59:53.489Z,8.14
2023-01-13T21:02:22.559Z,8.07
2023-01-13T21:04:52.143Z,8.06
2023-01-13T21:07:21.090Z,8.07
2023-01-13T21:09:48.609Z,8.03
2023-01-13T21:12:34.884Z,7.91
2023-01-13T21:15:21.735Z,7.93
2023-01-13T21:18:11.991Z,8.00
2023-01-13T21:20:41.481Z,8.00
2023-01-13T21:23:11.149Z,7.97
2023-01-13T21:25:43.625Z,7.95
2023-01-13T21:28:13.832Z,7.92
2023-01-13T21:30:40.335Z,7.89
2023-01-13T21:33:06.881Z,7.88
2023-01-13T21:35:33.488Z,7.96
2023-01-13T21:38:12.143Z,7.95
2023-01-13T21:40:41.557Z,7.95
2023-01-13T21:43:31.490Z,7.99
2023-01-13T21:46:17.426Z,8.04
2023-01-13T21:48:50.921Z,8.08
2023-01-13T21:51:21.306Z,8.10
2023-01-13T21:53:50.549Z,8.05
2023-01-13T21:56:19.959Z,8.10
2023-01-13T21:58:46.740Z,8.11
2023-01-13T22:01:25.396Z,8.18
2023-01-13T22:04:13.017Z,8.19
2023-01-13T22:06:39.906Z,8.15
2023-01-13T22:09:06.841Z,8.10
2023-01-13T22:11:33.967Z,8.14
2023-01-13T22:14:10.149Z,8.16
2023-01-13T22:16:50.178Z,8.20
2023-01-13T22:19:18.154Z,8.23
2023-01-13T22:21:47.476Z,8.32
2023-01-13T22:24:14.015Z,8.37
2023-01-13T22:26:40.348Z,8.39
2023-01-13T22:29:11.856Z,8.44
2023-01-13T22:31:38.212Z,8.43
2023-01-13T22:34:04.638Z,8.41
2023-01-13T22:36:39.577Z,8.37
2023-01-13T22:39:05.967Z,8.36
2023-01-13T22:41:32.701Z,8.42
2023-01-13T22:44:00.715Z,8.45
2023-01-13T22:46:31.323Z,8.44
2023-01-13T22:48:57.754Z,8.42
2023-01-13T22:51:24.239Z,8.35
2023-01-13T22:53:54.698Z,8.34
2023-01-13T22:56:24.063Z,8.31
2023-01-13T22:59:04.870Z,8.32
2023-01-13T23:01:35.321Z,8.31
2023-01-13T23:04:04.782Z,8.25
2023-01-13T23:06:35.525Z,8.24
2023-01-13T23:09:02.008Z,8.19
2023-01-13T23:11:42.339Z,8.17
2023-01-13T23:14:13.597Z,8.17
2023-01-13T23:16:42.935Z,8.14
2023-01-13T23:19:12.876Z,8.21
2023-01-13T23:21:39.368Z,8.22
2023-01-13T23:24:06.944Z,8.19
2023-01-13T23:26:37.485Z,8.19
2023-01-13T23:29:12.249Z,8.23
2023-01-13T23:37:04.694Z,8.33
2023-01-13T23:39:33.673Z,8.34
2023-01-13T23:42:00.121Z,8.33
2023-01-13T23:44:26.831Z,8.36
2023-01-13T23:46:53.254Z,8.35
2023-01-13T23:49:19.592Z,8.36
2023-01-13T23:51:45.949Z,8.40
2023-01-13T23:54:15.093Z,8.39
2023-01-13T23:56:44.644Z,8.36
2023-01-13T23:59:13.678Z,8.40
